sensor_id;sensor_type;location;lat;lon;timestamp;pressure;altitude;pressure_sealevel;temperature;humidity
39823;BME280;25499;53.958;10.970;2023-12-28T08:07:48;100338.16;;;7.72;100.00
39823;BME280;25499;53.958;10.970;2023-12-28T08:10:15;100329.53;;;7.76;100.00
39823;BME280;25499;53.958;10.970;2023-12-28T08:12:42;100335.59;;;7.84;100.00
39823;BME280;25499;53.958;10.970;2023-12-28T08:15:09;100317.41;;;7.77;100.00
39823;BME280;25499;53.958;10.970;2023-12-28T08:17:36;100323.47;;;7.79;100.00
39823;BME280;25499;53.958;10.970;2023-12-28T08:20:04;100312.25;;;7.71;100.00
39823;BME280;25499;53.958;10.970;2023-12-28T08:22:32;100313.97;;;7.87;100.00
39823;BME280;25499;53.958;10.970;2023-12-28T08:25:00;100310.50;;;7.82;100.00
39823;BME280;25499;53.958;10.970;2023-12-28T08:27:27;100313.97;;;7.84;100.00
39823;BME280;25499;53.958;10.970;2023-12-28T08:29:54;100312.25;;;7.92;100.00
39823;BME280;25499;53.958;10.970;2023-12-28T08:32:20;100305.34;;;7.83;100.00
39823;BME280;25499;53.958;10.970;2023-12-28T08:34:48;100324.34;;;8.04;100.00
39823;BME280;25499;53.958;10.970;2023-12-28T08:37:16;100328.69;;;8.02;100.00
39823;BME280;25499;53.958;10.970;2023-12-28T08:39:42;100297.59;;;8.07;100.00
39823;BME280;25499;53.958;10.970;2023-12-28T08:42:11;100308.81;;;8.16;100.00
39823;BME280;25499;53.958;10.970;2023-12-28T08:44:37;100300.13;;;8.33;100.00
39823;BME280;25499;53.958;10.970;2023-12-28T08:47:04;100286.31;;;8.29;100.00
39823;BME280;25499;53.958;10.970;2023-12-28T08:49:31;100311.38;;;8.53;100.00
39823;BME280;25499;53.958;10.970;2023-12-28T08:51:58;100284.56;;;8.59;100.00
39823;BME280;25499;53.958;10.970;2023-12-28T08:54:25;100271.59;;;8.57;100.00
39823;BME280;25499;53.958;10.970;2023-12-28T08:56:52;100274.19;;;8.57;100.00
39823;BME280;25499;53.958;10.970;2023-12-28T08:59:20;100258.63;;;8.56;100.00
39823;BME280;25499;53.958;10.970;2023-12-28T09:01:47;100267.31;;;8.50;100.00
39823;BME280;25499;53.958;10.970;2023-12-28T09:04:14;100261.19;;;8.65;100.00
39823;BME280;25499;53.958;10.970;2023-12-28T09:06:40;100252.53;;;8.62;100.00
39823;BME280;25499;53.958;10.970;2023-12-28T09:09:07;100260.34;;;8.58;100.00
39823;BME280;25499;53.958;10.970;2023-12-28T09:11:34;100269.84;;;8.59;100.00
39823;BME280;25499;53.958;10.970;2023-12-28T09:14:01;100266.41;;;8.54;100.00
39823;BME280;25499;53.958;10.970;2023-12-28T09:16:30;100269.84;;;8.58;100.00
39823;BME280;25499;53.958;10.970;2023-12-28T09:18:57;100265.53;;;8.57;100.00
39823;BME280;25499;53.958;10.970;2023-12-28T09:21:25;100277.63;;;8.64;100.00
39823;BME280;25499;53.958;10.970;2023-12-28T09:23:52;100264.63;;;8.70;100.00
39823;BME280;25499;53.958;10.970;2023-12-28T09:26:19;100263.78;;;8.65;100.00
39823;BME280;25499;53.958;10.970;2023-12-28T09:28:45;100281.03;;;8.85;100.00
39823;BME280;25499;53.958;10.970;2023-12-28T09:31:14;100267.19;;;8.81;100.00
39823;BME280;25499;53.958;10.970;2023-12-28T09:33:42;100275.84;;;8.83;100.00
39823;BME280;25499;53.958;10.970;2023-12-28T09:36:09;100264.53;;;8.98;100.00
39823;BME280;25499;53.958;10.970;2023-12-28T09:38:38;100248.97;;;8.98;100.00
39823;BME280;25499;53.958;10.970;2023-12-28T09:41:12;100265.38;;;9.02;100.00
39823;BME280;25499;53.958;10.970;2023-12-28T09:43:46;100236.81;;;9.05;100.00
39823;BME280;25499;53.958;10.970;2023-12-28T09:46:16;100242.00;;;9.06;100.00
39823;BME280;25499;53.958;10.970;2023-12-28T09:48:44;100243.69;;;9.12;100.00
39823;BME280;25499;53.958;10.970;2023-12-28T09:51:11;100247.13;;;9.17;100.00
39823;BME280;25499;53.958;10.970;2023-12-28T09:53:38;100235.00;;;9.16;100.00
39823;BME280;25499;53.958;10.970;2023-12-28T09:56:07;100223.75;;;9.15;100.00
39823;BME280;25499;53.958;10.970;2023-12-28T09:58:35;100237.56;;;9.19;100.00
39823;BME280;25499;53.958;10.970;2023-12-28T10:01:03;100229.78;;;9.21;100.00
39823;BME280;25499;53.958;10.970;2023-12-28T10:03:31;100233.19;;;9.27;100.00
39823;BME280;25499;53.958;10.970;2023-12-28T10:05:59;100211.53;;;9.31;100.00
39823;BME280;25499;53.958;10.970;2023-12-28T10:08:26;100221.91;;;9.34;100.00
39823;BME280;25499;53.958;10.970;2023-12-28T10:10:53;100206.28;;;9.38;100.00
39823;BME280;25499;53.958;10.970;2023-12-28T10:13:20;100205.38;;;9.43;100.00
39823;BME280;25499;53.958;10.970;2023-12-28T10:15:48;100192.31;;;9.54;100.00
39823;BME280;25499;53.958;10.970;2023-12-28T10:18:17;100192.25;;;9.60;100.00
39823;BME280;25499;53.958;10.970;2023-12-28T10:20:49;100188.63;;;9.83;100.00
39823;BME280;25499;53.958;10.970;2023-12-28T10:23:17;100175.66;;;9.78;100.00
39823;BME280;25499;53.958;10.970;2023-12-28T10:25:44;100166.03;;;9.88;100.00
39823;BME280;25499;53.958;10.970;2023-12-28T10:28:12;100142.63;;;9.86;100.00
39823;BME280;25499;53.958;10.970;2023-12-28T10:30:39;100130.47;;;9.88;100.00
39823;BME280;25499;53.958;10.970;2023-12-28T10:33:06;100121.72;;;9.96;100.00
39823;BME280;25499;53.958;10.970;2023-12-28T10:35:33;100135.63;;;9.93;100.00
39823;BME280;25499;53.958;10.970;2023-12-28T10:38:00;100113.09;;;9.92;100.00
39823;BME280;25499;53.958;10.970;2023-12-28T10:40:33;100129.06;;;10.40;100.00
39823;BME280;25499;53.958;10.970;2023-12-28T10:43:06;100128.06;;;11.11;100.00
39823;BME280;25499;53.958;10.970;2023-12-28T10:45:34;100089.72;;;11.19;100.00
39823;BME280;25499;53.958;10.970;2023-12-28T10:48:05;100091.91;;;12.36;100.00
39823;BME280;25499;53.958;10.970;2023-12-28T10:50:37;100005.06;;;12.29;100.00
39823;BME280;25499;53.958;10.970;2023-12-28T10:53:16;99967.22;;;11.68;100.00
39823;BME280;25499;53.958;10.970;2023-12-28T10:55:53;99994.72;;;12.25;100.00
39823;BME280;25499;53.958;10.970;2023-12-28T10:58:28;99991.22;;;12.98;100.00
39823;BME280;25499;53.958;10.970;2023-12-28T11:01:02;99934.06;;;12.85;98.09
39823;BME280;25499;53.958;10.970;2023-12-28T11:03:34;99877.44;;;12.19;96.62
39823;BME280;25499;53.958;10.970;2023-12-28T11:06:04;99888.06;;;11.27;97.10
39823;BME280;25499;53.958;10.970;2023-12-28T11:08:32;99919.88;;;10.99;98.48
39823;BME280;25499;53.958;10.970;2023-12-28T11:11:01;99923.06;;;10.67;99.64
39823;BME280;25499;53.958;10.970;2023-12-28T11:13:30;99990.41;;;10.88;100.00
39823;BME280;25499;53.958;10.970;2023-12-28T11:15:58;100021.25;;;11.60;100.00
39823;BME280;25499;53.958;10.970;2023-12-28T11:18:26;99998.88;;;12.32;99.76
39823;BME280;25499;53.958;10.970;2023-12-28T11:20:55;99956.75;;;12.85;96.57
39823;BME280;25499;53.958;10.970;2023-12-28T11:23:22;99900.47;;;13.04;94.51
39823;BME280;25499;53.958;10.970;2023-12-28T11:25:50;99829.41;;;11.88;93.26
39823;BME280;25499;53.958;10.970;2023-12-28T11:28:18;99829.38;;;11.10;93.99
39823;BME280;25499;53.958;10.970;2023-12-28T11:30:46;99864.72;;;10.78;95.32
39823;BME280;25499;53.958;10.970;2023-12-28T11:33:13;99908.31;;;10.66;96.15
39823;BME280;25499;53.958;10.970;2023-12-28T11:35:40;99958.34;;;10.85;97.89
39823;BME280;25499;53.958;10.970;2023-12-28T11:38:08;99971.47;;;11.27;98.18
39823;BME280;25499;53.958;10.970;2023-12-28T11:40:45;99959.09;;;11.38;97.50
39823;BME280;25499;53.958;10.970;2023-12-28T11:43:17;99926.59;;;11.56;96.24
39823;BME280;25499;53.958;10.970;2023-12-28T11:45:49;99904.19;;;11.04;95.95
39823;BME280;25499;53.958;10.970;2023-12-28T11:48:23;99928.78;;;10.86;97.07
39823;BME280;25499;53.958;10.970;2023-12-28T11:50:54;99938.88;;;10.56;97.55
39823;BME280;25499;53.958;10.970;2023-12-28T11:53:22;99944.41;;;10.31;98.46
39823;BME280;25499;53.958;10.970;2023-12-28T11:55:49;99964.47;;;10.21;99.04
39823;BME280;25499;53.958;10.970;2023-12-28T11:58:16;99974.19;;;10.12;100.00
39823;BME280;25499;53.958;10.970;2023-12-28T12:00:43;99999.41;;;10.06;100.00
39823;BME280;25499;53.958;10.970;2023-12-28T12:03:12;100023.63;;;10.08;100.00
39823;BME280;25499;53.958;10.970;2023-12-28T12:05:39;100011.44;;;10.12;100.00
39823;BME280;25499;53.958;10.970;2023-12-28T12:08:06;100018.19;;;10.27;100.00
39823;BME280;25499;53.958;10.970;2023-12-28T12:10:35;100026.81;;;10.29;100.00
39823;BME280;25499;53.958;10.970;2023-12-28T12:13:02;100022.63;;;10.20;100.00
39823;BME280;25499;53.958;10.970;2023-12-28T12:15:29;100028.69;;;10.19;100.00
39823;BME280;25499;53.958;10.970;2023-12-28T12:17:56;99998.25;;;10.24;100.00
39823;BME280;25499;53.958;10.970;2023-12-28T12:20:25;100011.22;;;10.32;100.00
39823;BME280;25499;53.958;10.970;2023-12-28T12:22:57;100000.78;;;10.35;100.00
39823;BME280;25499;53.958;10.970;2023-12-28T12:25:24;100002.50;;;10.33;100.00
39823;BME280;25499;53.958;10.970;2023-12-28T12:27:51;100016.47;;;10.24;100.00
39823;BME280;25499;53.958;10.970;2023-12-28T12:30:19;100018.28;;;10.18;100.00
39823;BME280;25499;53.958;10.970;2023-12-28T12:32:46;100024.44;;;10.14;100.00
39823;BME280;25499;53.958;10.970;2023-12-28T12:35:13;100027.06;;;10.11;100.00
39823;BME280;25499;53.958;10.970;2023-12-28T12:37:41;100044.44;;;10.10;100.00
39823;BME280;25499;53.958;10.970;2023-12-28T12:40:09;100044.44;;;10.08;100.00
39823;BME280;25499;53.958;10.970;2023-12-28T12:42:36;100042.66;;;10.14;100.00
39823;BME280;25499;53.958;10.970;2023-12-28T12:45:04;100060.06;;;10.08;100.00
39823;BME280;25499;53.958;10.970;2023-12-28T12:47:32;100055.72;;;10.07;100.00
39823;BME280;25499;53.958;10.970;2023-12-28T12:50:00;100059.16;;;10.08;100.00
39823;BME280;25499;53.958;10.970;2023-12-28T12:52:27;100050.50;;;10.09;100.00
39823;BME280;25499;53.958;10.970;2023-12-28T12:54:56;100055.75;;;10.03;100.00
39823;BME280;25499;53.958;10.970;2023-12-28T12:57:23;100061.84;;;10.03;100.00
39823;BME280;25499;53.958;10.970;2023-12-28T12:59:51;100057.47;;;10.05;100.00
39823;BME280;25499;53.958;10.970;2023-12-28T13:02:17;100060.09;;;10.04;100.00
39823;BME280;25499;53.958;10.970;2023-12-28T13:04:44;100060.09;;;10.02;100.00
39823;BME280;25499;53.958;10.970;2023-12-28T13:07:11;100059.25;;;10.03;100.00
39823;BME280;25499;53.958;10.970;2023-12-28T13:09:38;100061.84;;;10.02;100.00
39823;BME280;25499;53.958;10.970;2023-12-28T13:12:07;100077.50;;;9.99;100.00
39823;BME280;25499;53.958;10.970;2023-12-28T13:14:34;100074.84;;;10.03;100.00
39823;BME280;25499;53.958;10.970;2023-12-28T13:17:01;100068.81;;;10.01;100.00
39823;BME280;25499;53.958;10.970;2023-12-28T13:19:28;100083.53;;;10.01;100.00
39823;BME280;25499;53.958;10.970;2023-12-28T13:21:54;100072.25;;;10.03;100.00
39823;BME280;25499;53.958;10.970;2023-12-28T13:24:22;100090.44;;;10.05;100.00
39823;BME280;25499;53.958;10.970;2023-12-28T13:26:49;100097.34;;;10.06;100.00
39823;BME280;25499;53.958;10.970;2023-12-28T13:29:17;100097.34;;;10.04;100.00
39823;BME280;25499;53.958;10.970;2023-12-28T13:31:44;100098.25;;;10.05;100.00
39823;BME280;25499;53.958;10.970;2023-12-28T13:34:15;100102.56;;;10.04;100.00
39823;BME280;25499;53.958;10.970;2023-12-28T13:36:42;100098.28;;;10.02;100.00
39823;BME280;25499;53.958;10.970;2023-12-28T13:39:09;100107.91;;;9.92;100.00
39823;BME280;25499;53.958;10.970;2023-12-28T13:41:43;100118.41;;;9.83;100.00
39823;BME280;25499;53.958;10.970;2023-12-28T13:44:10;100127.94;;;9.81;100.00
39823;BME280;25499;53.958;10.970;2023-12-28T13:46:39;100134.06;;;9.75;100.00
39823;BME280;25499;53.958;10.970;2023-12-28T13:49:06;100143.63;;;9.76;100.00
39823;BME280;25499;53.958;10.970;2023-12-28T13:51:33;100150.59;;;9.73;100.00
39823;BME280;25499;53.958;10.970;2023-12-28T13:54:00;100142.72;;;9.76;100.00
39823;BME280;25499;53.958;10.970;2023-12-28T13:56:26;100150.47;;;9.82;100.00
39823;BME280;25499;53.958;10.970;2023-12-28T13:58:53;100149.63;;;9.83;100.00
39823;BME280;25499;53.958;10.970;2023-12-28T14:01:20;100153.06;;;9.85;100.00
39823;BME280;25499;53.958;10.970;2023-12-28T14:03:48;100134.00;;;9.83;100.00
39823;BME280;25499;53.958;10.970;2023-12-28T14:06:17;100140.06;;;9.85;100.00
39823;BME280;25499;53.958;10.970;2023-12-28T14:08:45;100150.50;;;9.80;100.00
39823;BME280;25499;53.958;10.970;2023-12-28T14:11:12;100147.03;;;9.80;100.00
39823;BME280;25499;53.958;10.970;2023-12-28T14:13:39;100143.63;;;9.75;100.00
39823;BME280;25499;53.958;10.970;2023-12-28T14:16:06;100152.38;;;9.67;100.00
39823;BME280;25499;53.958;10.970;2023-12-28T14:18:34;100165.31;;;9.70;100.00
39823;BME280;25499;53.958;10.970;2023-12-28T14:21:02;100160.88;;;9.80;100.00
39823;BME280;25499;53.958;10.970;2023-12-28T14:23:30;100159.25;;;9.71;100.00
39823;BME280;25499;53.958;10.970;2023-12-28T14:25:58;100144.47;;;9.74;100.00
39823;BME280;25499;53.958;10.970;2023-12-28T14:28:25;100151.41;;;9.75;100.00
39823;BME280;25499;53.958;10.970;2023-12-28T14:30:52;100151.34;;;9.81;100.00
39823;BME280;25499;53.958;10.970;2023-12-28T14:33:19;100151.31;;;9.82;100.00
39823;BME280;25499;53.958;10.970;2023-12-28T14:35:47;100155.69;;;9.79;100.00
39823;BME280;25499;53.958;10.970;2023-12-28T14:38:15;100159.28;;;9.65;100.00
39823;BME280;25499;53.958;10.970;2023-12-28T14:40:42;100172.34;;;9.61;100.00
39823;BME280;25499;53.958;10.970;2023-12-28T14:43:09;100189.63;;;9.65;100.00
39823;BME280;25499;53.958;10.970;2023-12-28T14:45:36;100189.66;;;9.60;100.00
39823;BME280;25499;53.958;10.970;2023-12-28T14:48:03;100198.34;;;9.59;100.00
39823;BME280;25499;53.958;10.970;2023-12-28T14:50:30;100196.63;;;9.55;100.00
39823;BME280;25499;53.958;10.970;2023-12-28T14:52:57;100203.56;;;9.58;100.00
39823;BME280;25499;53.958;10.970;2023-12-28T14:55:25;100206.97;;;9.64;100.00
39823;BME280;25499;53.958;10.970;2023-12-28T14:57:53;100206.97;;;9.64;100.00
39823;BME280;25499;53.958;10.970;2023-12-28T15:00:20;100193.06;;;9.65;100.00
39823;BME280;25499;53.958;10.970;2023-12-28T15:02:46;100191.31;;;9.69;100.00
39823;BME280;25499;53.958;10.970;2023-12-28T15:05:13;100188.69;;;9.70;100.00
39823;BME280;25499;53.958;10.970;2023-12-28T15:07:40;100194.81;;;9.65;100.00
39823;BME280;25499;53.958;10.970;2023-12-28T15:10:08;100190.44;;;9.71;100.00
39823;BME280;25499;53.958;10.970;2023-12-28T15:12:37;100193.00;;;9.75;100.00
39823;BME280;25499;53.958;10.970;2023-12-28T15:15:11;100190.56;;;9.56;100.00
39823;BME280;25499;53.958;10.970;2023-12-28T15:17:38;100203.59;;;9.51;100.00
39823;BME280;25499;53.958;10.970;2023-12-28T15:20:06;100223.56;;;9.45;100.00
39823;BME280;25499;53.958;10.970;2023-12-28T15:22:35;100234.91;;;9.31;100.00
39823;BME280;25499;53.958;10.970;2023-12-28T15:25:02;100245.38;;;9.16;100.00
39823;BME280;25499;53.958;10.970;2023-12-28T15:27:29;100261.88;;;9.06;100.00
39823;BME280;25499;53.958;10.970;2023-12-28T15:29:57;100276.63;;;9.05;100.00
39823;BME280;25499;53.958;10.970;2023-12-28T15:32:24;100280.13;;;8.95;100.00
39823;BME280;25499;53.958;10.970;2023-12-28T15:34:51;100283.56;;;8.91;100.00
39823;BME280;25499;53.958;10.970;2023-12-28T15:37:17;100291.41;;;8.89;100.00
39823;BME280;25499;53.958;10.970;2023-12-28T15:39:44;100297.47;;;8.85;100.00
39823;BME280;25499;53.958;10.970;2023-12-28T15:42:11;100307.84;;;8.81;100.00
39823;BME280;25499;53.958;10.970;2023-12-28T15:44:38;100305.25;;;8.79;100.00
39823;BME280;25499;53.958;10.970;2023-12-28T15:47:06;100308.72;;;8.78;100.00
39823;BME280;25499;53.958;10.970;2023-12-28T15:49:33;100317.38;;;8.85;100.00
39823;BME280;25499;53.958;10.970;2023-12-28T15:52:00;100312.19;;;8.77;100.00
39823;BME280;25499;53.958;10.970;2023-12-28T15:54:27;100309.59;;;8.78;100.00
39823;BME280;25499;53.958;10.970;2023-12-28T15:56:55;100307.03;;;8.72;100.00
39823;BME280;25499;53.958;10.970;2023-12-28T15:59:23;100319.13;;;8.75;100.00
39823;BME280;25499;53.958;10.970;2023-12-28T16:01:50;100313.06;;;8.74;100.00
39823;BME280;25499;53.958;10.970;2023-12-28T16:04:18;100308.75;;;8.73;100.00
39823;BME280;25499;53.958;10.970;2023-12-28T16:06:45;100305.28;;;8.76;100.00
39823;BME280;25499;53.958;10.970;2023-12-28T16:09:12;100311.34;;;8.78;100.00
39823;BME280;25499;53.958;10.970;2023-12-28T16:11:39;100311.34;;;8.75;100.00
39823;BME280;25499;53.958;10.970;2023-12-28T16:14:06;100314.78;;;8.75;100.00
39823;BME280;25499;53.958;10.970;2023-12-28T16:16:34;100316.53;;;8.78;100.00
39823;BME280;25499;53.958;10.970;2023-12-28T16:19:02;100307.00;;;8.77;100.00
39823;BME280;25499;53.958;10.970;2023-12-28T16:21:31;100307.00;;;8.74;100.00
39823;BME280;25499;53.958;10.970;2023-12-28T16:23:58;100313.97;;;8.66;100.00
39823;BME280;25499;53.958;10.970;2023-12-28T16:26:25;100315.69;;;8.64;100.00
39823;BME280;25499;53.958;10.970;2023-12-28T16:28:52;100309.63;;;8.60;100.00
39823;BME280;25499;53.958;10.970;2023-12-28T16:31:19;100311.38;;;8.67;100.00
39823;BME280;25499;53.958;10.970;2023-12-28T16:33:46;100306.19;;;8.67;100.00
39823;BME280;25499;53.958;10.970;2023-12-28T16:36:13;100298.38;;;8.69;100.00
39823;BME280;25499;53.958;10.970;2023-12-28T16:38:41;100304.41;;;8.75;100.00
39823;BME280;25499;53.958;10.970;2023-12-28T16:41:08;100292.28;;;8.79;100.00
39823;BME280;25499;53.958;10.970;2023-12-28T16:43:34;100291.41;;;8.77;100.00
39823;BME280;25499;53.958;10.970;2023-12-28T16:46:04;100287.97;;;8.80;100.00
39823;BME280;25499;53.958;10.970;2023-12-28T16:48:31;100282.72;;;8.87;100.00
39823;BME280;25499;53.958;10.970;2023-12-28T16:50:58;100278.41;;;8.89;100.00
39823;BME280;25499;53.958;10.970;2023-12-28T16:53:28;100277.53;;;8.89;100.00
39823;BME280;25499;53.958;10.970;2023-12-28T16:55:57;100267.13;;;8.93;100.00
39823;BME280;25499;53.958;10.970;2023-12-28T16:58:24;100263.69;;;8.91;100.00
39823;BME280;25499;53.958;10.970;2023-12-28T17:00:50;100268.00;;;8.95;100.00
39823;BME280;25499;53.958;10.970;2023-12-28T17:03:17;100255.00;;;8.99;100.00
39823;BME280;25499;53.958;10.970;2023-12-28T17:05:44;100246.28;;;9.09;100.00
39823;BME280;25499;53.958;10.970;2023-12-28T17:08:11;100242.88;;;8.98;100.00
39823;BME280;25499;53.958;10.970;2023-12-28T17:10:38;100237.69;;;8.98;100.00
39823;BME280;25499;53.958;10.970;2023-12-28T17:13:08;100229.03;;;8.95;100.00
39823;BME280;25499;53.958;10.970;2023-12-28T17:15:36;100236.84;;;8.95;100.00
39823;BME280;25499;53.958;10.970;2023-12-28T17:18:05;100228.97;;;9.08;100.00
39823;BME280;25499;53.958;10.970;2023-12-28T17:20:33;100224.63;;;9.13;100.00
39823;BME280;25499;53.958;10.970;2023-12-28T17:25:49;100198.63;;;9.16;100.00
39823;BME280;25499;53.958;10.970;2023-12-28T17:28:20;100192.59;;;9.14;100.00
39823;BME280;25499;53.958;10.970;2023-12-28T17:30:52;100191.75;;;9.13;100.00
39823;BME280;25499;53.958;10.970;2023-12-28T17:33:20;100185.72;;;9.10;100.00
39823;BME280;25499;53.958;10.970;2023-12-28T17:35:47;100195.25;;;9.06;100.00
39823;BME280;25499;53.958;10.970;2023-12-28T17:38:15;100183.88;;;9.21;100.00
39823;BME280;25499;53.958;10.970;2023-12-28T17:40:42;100181.28;;;9.20;100.00
39823;BME280;25499;53.958;10.970;2023-12-28T17:43:15;100175.28;;;9.13;100.00
39823;BME280;25499;53.958;10.970;2023-12-28T17:45:50;100161.44;;;9.14;100.00
39823;BME280;25499;53.958;10.970;2023-12-28T17:48:21;100168.41;;;9.09;100.00
39823;BME280;25499;53.958;10.970;2023-12-28T17:50:50;100176.09;;;9.20;100.00
39823;BME280;25499;53.958;10.970;2023-12-28T17:53:19;100169.22;;;9.17;100.00
39823;BME280;25499;53.958;10.970;2023-12-28T17:55:46;100173.56;;;9.15;100.00
39823;BME280;25499;53.958;10.970;2023-12-28T17:58:13;100181.38;;;9.09;100.00
39823;BME280;25499;53.958;10.970;2023-12-28T18:00:40;100186.59;;;9.04;100.00
39823;BME280;25499;53.958;10.970;2023-12-28T18:03:08;100191.84;;;9.00;100.00
39823;BME280;25499;53.958;10.970;2023-12-28T18:05:35;100211.78;;;8.88;100.00
39823;BME280;25499;53.958;10.970;2023-12-28T18:08:02;100212.69;;;8.78;100.00
39823;BME280;25499;53.958;10.970;2023-12-28T18:10:29;100206.63;;;8.82;100.00
39823;BME280;25499;53.958;10.970;2023-12-28T18:12:55;100210.13;;;8.76;100.00
39823;BME280;25499;53.958;10.970;2023-12-28T18:15:22;100216.16;;;8.78;100.00
39823;BME280;25499;53.958;10.970;2023-12-28T18:17:49;100215.28;;;8.78;100.00
39823;BME280;25499;53.958;10.970;2023-12-28T18:20:17;100224.78;;;8.85;100.00
39823;BME280;25499;53.958;10.970;2023-12-28T18:22:44;100217.88;;;8.83;100.00
39823;BME280;25499;53.958;10.970;2023-12-28T18:25:11;100229.97;;;8.87;100.00
39823;BME280;25499;53.958;10.970;2023-12-28T18:27:38;100214.41;;;8.81;100.00
39823;BME280;25499;53.958;10.970;2023-12-28T18:30:05;100216.13;;;8.86;100.00
39823;BME280;25499;53.958;10.970;2023-12-28T18:32:32;100205.75;;;8.82;100.00
39823;BME280;25499;53.958;10.970;2023-12-28T18:35:00;100215.28;;;8.81;100.00
39823;BME280;25499;53.958;10.970;2023-12-28T18:37:29;100204.09;;;8.68;100.00
39823;BME280;25499;53.958;10.970;2023-12-28T18:39:56;100205.00;;;8.59;100.00
39823;BME280;25499;53.958;10.970;2023-12-28T18:42:23;100207.59;;;8.52;100.00
39823;BME280;25499;53.958;10.970;2023-12-28T18:44:49;100205.00;;;8.53;100.00
39823;BME280;25499;53.958;10.970;2023-12-28T18:47:16;100210.22;;;8.47;100.00
39823;BME280;25499;53.958;10.970;2023-12-28T18:49:43;100208.47;;;8.41;100.00
39823;BME280;25499;53.958;10.970;2023-12-28T18:52:10;100221.47;;;8.46;100.00
39823;BME280;25499;53.958;10.970;2023-12-28T18:54:38;100224.06;;;8.46;100.00
39823;BME280;25499;53.958;10.970;2023-12-28T18:57:05;100217.13;;;8.42;100.00
39823;BME280;25499;53.958;10.970;2023-12-28T18:59:32;100214.53;;;8.42;100.00
39823;BME280;25499;53.958;10.970;2023-12-28T19:01:58;100206.75;;;8.48;100.00
39823;BME280;25499;53.958;10.970;2023-12-28T19:04:26;100203.31;;;8.51;100.00
39823;BME280;25499;53.958;10.970;2023-12-28T19:06:53;100194.66;;;8.49;100.00
39823;BME280;25499;53.958;10.970;2023-12-28T19:09:20;100182.56;;;8.43;100.00
39823;BME280;25499;53.958;10.970;2023-12-28T19:11:49;100179.09;;;8.49;100.00
39823;BME280;25499;53.958;10.970;2023-12-28T19:14:16;100167.00;;;8.46;100.00
39823;BME280;25499;53.958;10.970;2023-12-28T19:16:43;100160.06;;;8.45;100.00
39823;BME280;25499;53.958;10.970;2023-12-28T19:19:10;100172.97;;;8.65;100.00
39823;BME280;25499;53.958;10.970;2023-12-28T19:21:37;100151.31;;;8.71;100.00
39823;BME280;25499;53.958;10.970;2023-12-28T19:24:04;100134.84;;;8.80;100.00
39823;BME280;25499;53.958;10.970;2023-12-28T19:26:32;100120.97;;;8.82;100.00
39823;BME280;25499;53.958;10.970;2023-12-28T19:29:00;100117.50;;;8.85;100.00
39823;BME280;25499;53.958;10.970;2023-12-28T19:31:27;100104.50;;;8.89;100.00
39823;BME280;25499;53.958;10.970;2023-12-28T19:33:53;100103.59;;;8.92;100.00
39823;BME280;25499;53.958;10.970;2023-12-28T19:36:20;100085.53;;;8.80;100.00
39823;BME280;25499;53.958;10.970;2023-12-28T19:38:47;100087.19;;;8.85;100.00
39823;BME280;25499;53.958;10.970;2023-12-28T19:41:14;100072.56;;;8.75;100.00
39823;BME280;25499;53.958;10.970;2023-12-28T19:43:41;100077.72;;;8.84;100.00
39823;BME280;25499;53.958;10.970;2023-12-28T19:46:11;100075.06;;;8.87;100.00
39823;BME280;25499;53.958;10.970;2023-12-28T19:48:39;100078.50;;;8.91;100.00
39823;BME280;25499;53.958;10.970;2023-12-28T19:51:06;100071.59;;;8.90;100.00
39823;BME280;25499;53.958;10.970;2023-12-28T19:53:33;100071.50;;;9.01;100.00
39823;BME280;25499;53.958;10.970;2023-12-28T19:56:00;100068.88;;;9.05;100.00
39823;BME280;25499;53.958;10.970;2023-12-28T19:58:26;100054.16;;;9.06;100.00
39823;BME280;25499;53.958;10.970;2023-12-28T20:00:53;100056.72;;;9.10;100.00
39823;BME280;25499;53.958;10.970;2023-12-28T20:03:21;100058.47;;;9.10;100.00
39823;BME280;25499;53.958;10.970;2023-12-28T20:05:48;100047.19;;;9.11;100.00
39823;BME280;25499;53.958;10.970;2023-12-28T20:08:15;100052.41;;;9.09;100.00
39823;BME280;25499;53.958;10.970;2023-12-28T20:10:42;100035.06;;;9.13;100.00
39823;BME280;25499;53.958;10.970;2023-12-28T20:13:09;100029.03;;;9.08;100.00
39823;BME280;25499;53.958;10.970;2023-12-28T20:15:36;100030.72;;;9.17;100.00
39823;BME280;25499;53.958;10.970;2023-12-28T20:18:03;100030.75;;;9.13;100.00
39823;BME280;25499;53.958;10.970;2023-12-28T20:20:31;100033.31;;;9.15;100.00
39823;BME280;25499;53.958;10.970;2023-12-28T20:22:58;100029.03;;;9.08;100.00
39823;BME280;25499;53.958;10.970;2023-12-28T20:25:25;100027.31;;;9.10;100.00
39823;BME280;25499;53.958;10.970;2023-12-28T20:27:52;100023.84;;;9.08;100.00
39823;BME280;25499;53.958;10.970;2023-12-28T20:30:23;100025.53;;;9.15;100.00
39823;BME280;25499;53.958;10.970;2023-12-28T20:32:50;100035.91;;;9.15;100.00
39823;BME280;25499;53.958;10.970;2023-12-28T20:35:17;100030.72;;;9.17;100.00
39823;BME280;25499;53.958;10.970;2023-12-28T20:37:45;100023.03;;;9.03;100.00
39823;BME280;25499;53.958;10.970;2023-12-28T20:40:12;100029.13;;;9.00;100.00
39823;BME280;25499;53.958;10.970;2023-12-28T20:42:39;100055.09;;;8.97;100.00
39823;BME280;25499;53.958;10.970;2023-12-28T20:45:07;100059.47;;;8.89;100.00
39823;BME280;25499;53.958;10.970;2023-12-28T20:47:34;100057.78;;;8.89;100.00
39823;BME280;25499;53.958;10.970;2023-12-28T20:50:02;100069.00;;;8.93;100.00
39823;BME280;25499;53.958;10.970;2023-12-28T20:52:31;100070.78;;;8.86;100.00